Red Iron Lake, South Dakota
Current Conditions -  °F | °C
As of 6:55 AM on Wednesday 26 Nov 2014 (Local Time) from KGWR Reporting Station
Overcast Overcast  
Wind Chill: -10°   Ceiling: 1200
Heat Index:   Visibility: 10mi
Dew Point:   Wind: 17mph
Humidity: 73%   Direction: 360°N
Pressure: 30.27"   Gusts: 28mph
Location:  45.6965°N, 97.3492°W
Report Text: KGWR 261255Z AUTO 36015G24KT 10SM SCT009 BKN012 OVC100 M13/M17 A3027 RMK A01 P000
Loading
Personal Weather Stations






























Interactive Weather Map New forecast layout! Learn more

10-Day Weather Forecast

Advertisements
Track Severe Weather on mobile